Time;durP1;ratioP1;P1;durP2;ratioP2;P2;SDS_P1;SDS_P2;PMS_P1;PMS_P2;Temp;Humidity;BMP_temperature;BMP_pressure;BME280_temperature;BME280_humidity;BME280_pressure;Samples;Min_cycle;Max_cycle;Signal;HPM_P1;HPM_P2
2021/03/26 00:00:44;;;;;;;;;;;20.60;99.80;;;;;;4957547;28;20373;-80
2021/03/26 00:03:17;;;;;;;;;;;20.50;99.90;;;;;;4957686;29;19911;-82
2021/03/26 00:05:45;;;;;;;;;;;20.40;99.90;;;;;;4957636;29;19914;-82
2021/03/26 00:08:12;;;;;;;;;;;20.40;99.90;;;;;;4950650;29;19926;-82
2021/03/26 00:10:39;;;;;;;;;;;20.50;99.60;;;;;;4957795;29;19919;-80
2021/03/26 00:13:08;;;;;;;;;;;20.70;99.40;;;;;;4957656;29;20405;-82
2021/03/26 00:15:38;;;;;;;;;;;20.70;99.80;;;;;;4956576;29;19914;-80
2021/03/26 00:18:06;;;;;;;;;;;20.80;99.40;;;;;;4957345;29;19922;-82
2021/03/26 00:20:33;;;;;;;;;;;20.80;98.80;;;;;;4954156;29;20003;-81
2021/03/26 00:22:59;;;;;;;;;;;20.80;99.80;;;;;;4957973;29;20417;-79
2021/03/26 00:25:26;;;;;;;;;;;20.90;99.70;;;;;;4956649;29;20012;-79
2021/03/26 00:27:53;;;;;;;;;;;20.90;99.90;;;;;;4937968;29;19926;-81
2021/03/26 00:30:20;;;;;;;;;;;20.90;99.90;;;;;;4943453;29;19966;-81
2021/03/26 00:32:47;;;;;;;;;;;20.90;99.20;;;;;;4940264;29;19910;-78
2021/03/26 00:35:15;;;;;;;;;;;20.80;99.70;;;;;;4956099;29;19923;-80
2021/03/26 00:37:46;;;;;;;;;;;20.90;99.90;;;;;;4938698;29;19910;-80
2021/03/26 00:40:16;;;;;;;;;;;20.90;99.50;;;;;;4935155;29;20001;-82
2021/03/26 00:42:44;;;;;;;;;;;20.90;99.60;;;;;;4920859;29;19925;-83
2021/03/26 00:45:17;;;;;;;;;;;21.00;99.20;;;;;;4928015;29;20383;-81
2021/03/26 00:47:48;;;;;;;;;;;21.00;99.50;;;;;;4956927;29;20344;-80
2021/03/26 00:50:17;;;;;;;;;;;21.10;98.80;;;;;;4939638;29;19930;-81
2021/03/26 00:52:44;;;;;;;;;;;21.10;99.10;;;;;;4943820;29;19932;-79
2021/03/26 00:55:11;;;;;;;;;;;21.00;99.40;;;;;;4965957;29;19914;-80
2021/03/26 00:57:38;;;;;;;;;;;21.00;99.70;;;;;;4956685;29;19915;-81
2021/03/26 01:00:06;;;;;;;;;;;21.10;99.70;;;;;;4937920;28;19965;-82
2021/03/26 01:02:33;;;;;;;;;;;21.10;98.80;;;;;;4953982;28;19910;-78
2021/03/26 01:05:00;;;;;;;;;;;21.20;99.40;;;;;;4935016;29;19910;-78
2021/03/26 01:07:26;;;;;;;;;;;21.30;99.60;;;;;;4934981;29;19921;-77
2021/03/26 01:09:55;;;;;;;;;;;21.30;98.40;;;;;;4935605;29;20330;-79
2021/03/26 01:12:21;;;;;;;;;;;21.40;98.20;;;;;;4935226;29;19919;-77
2021/03/26 01:14:48;;;;;;;;;;;21.50;98.30;;;;;;4958679;28;20365;-79
2021/03/26 01:17:14;;;;;;;;;;;21.50;98.10;;;;;;4937868;29;20381;-82
2021/03/26 01:19:42;;;;;;;;;;;21.70;98.60;;;;;;4953020;29;19973;-79
2021/03/26 01:22:10;;;;;;;;;;;21.90;98.30;;;;;;4953233;29;20062;-79
2021/03/26 01:24:37;;;;;;;;;;;22.10;97.40;;;;;;4953287;29;19934;-80
2021/03/26 01:27:04;;;;;;;;;;;21.90;97.30;;;;;;4954767;29;19919;-80
2021/03/26 01:29:30;;;;;;;;;;;21.90;97.70;;;;;;4954156;28;20062;-78
2021/03/26 01:32:00;;;;;;;;;;;21.80;98.80;;;;;;4954015;29;19922;-82
2021/03/26 01:34:28;;;;;;;;;;;21.70;98.20;;;;;;4920404;29;19925;-78
2021/03/26 01:36:54;;;;;;;;;;;21.60;99.20;;;;;;4953329;29;20281;-79
2021/03/26 01:39:21;;;;;;;;;;;21.60;98.60;;;;;;4953322;29;20376;-81
2021/03/26 01:41:48;;;;;;;;;;;21.40;98.90;;;;;;4953638;29;19923;-81
2021/03/26 01:44:17;;;;;;;;;;;21.40;99.00;;;;;;4954026;29;19910;-78
2021/03/26 01:46:45;;;;;;;;;;;21.30;99.20;;;;;;4950669;28;20052;-81
2021/03/26 01:49:11;;;;;;;;;;;21.30;99.60;;;;;;4953193;29;19918;-82
2021/03/26 01:51:40;;;;;;;;;;;21.30;99.90;;;;;;4935562;29;19934;-82
2021/03/26 01:54:08;;;;;;;;;;;21.30;99.90;;;;;;4954438;29;20297;-80
2021/03/26 01:56:39;;;;;;;;;;;21.20;99.90;;;;;;4953916;28;19918;-81
2021/03/26 01:59:06;;;;;;;;;;;21.10;99.90;;;;;;4954628;29;19962;-76
2021/03/26 02:01:38;;;;;;;;;;;21.10;99.90;;;;;;4929125;29;19921;-77
2021/03/26 02:04:06;;;;;;;;;;;21.00;99.90;;;;;;4936524;29;19933;-77
2021/03/26 02:06:34;;;;;;;;;;;21.00;99.90;;;;;;4949155;29;19925;-81
2021/03/26 02:09:09;;;;;;;;;;;21.00;99.90;;;;;;4932771;29;19968;-80
2021/03/26 02:11:36;;;;;;;;;;;21.20;99.90;;;;;;4954142;28;19915;-77
2021/03/26 02:17:12;;;;;;;;;;;21.60;99.90;;;;;;4894622;29;20433;-78
2021/03/26 02:19:42;;;;;;;;;;;21.90;99.90;;;;;;4895481;29;20386;-81
2021/03/26 02:22:10;;;;;;;;;;;22.10;99.90;;;;;;4903051;29;20309;-82
2021/03/26 02:24:42;;;;;;;;;;;22.30;99.90;;;;;;4908035;29;20338;-81
2021/03/26 02:27:12;;;;;;;;;;;22.40;99.90;;;;;;4894770;29;19915;-83
2021/03/26 02:29:39;;;;;;;;;;;22.30;99.90;;;;;;4894471;29;19927;-82
2021/03/26 02:32:15;;;;;;;;;;;22.20;99.90;;;;;;4892324;29;19911;-81
2021/03/26 02:35:01;;;;;;;;;;;21.90;99.90;;;;;;4894506;29;19916;-81
2021/03/26 02:37:29;;;;;;;;;;;21.80;99.90;;;;;;4876362;29;19970;-77
2021/03/26 02:39:56;;;;;;;;;;;21.80;99.90;;;;;;4896359;29;19912;-77
2021/03/26 02:42:24;;;;;;;;;;;21.90;99.90;;;;;;4902755;29;19922;-78
2021/03/26 02:44:51;;;;;;;;;;;21.90;99.90;;;;;;4899192;29;19911;-78
2021/03/26 02:47:41;;;;;;;;;;;21.80;99.90;;;;;;4891705;29;20024;-78
2021/03/26 02:50:21;;;;;;;;;;;21.90;99.90;;;;;;4941217;29;19962;-78
2021/03/26 02:52:56;;;;;;;;;;;21.80;99.90;;;;;;4935273;29;19918;-80
2021/03/26 02:55:26;;;;;;;;;;;21.90;99.90;;;;;;4952085;29;19965;-79
2021/03/26 02:57:52;;;;;;;;;;;21.90;99.90;;;;;;4953173;29;19939;-79
2021/03/26 03:00:23;;;;;;;;;;;21.90;99.90;;;;;;4954538;29;19957;-78
2021/03/26 03:02:51;;;;;;;;;;;21.90;99.90;;;;;;4937149;29;20377;-78
2021/03/26 03:05:22;;;;;;;;;;;21.80;99.90;;;;;;4953041;29;19911;-79
2021/03/26 03:07:54;;;;;;;;;;;21.70;99.90;;;;;;4935840;29;19914;-81
2021/03/26 03:10:24;;;;;;;;;;;21.60;99.90;;;;;;4954859;29;19918;-77
2021/03/26 03:12:55;;;;;;;;;;;21.70;99.90;;;;;;4954868;29;19910;-80
2021/03/26 03:15:29;;;;;;;;;;;22.00;99.90;;;;;;4933285;29;19970;-77
2021/03/26 03:18:09;;;;;;;;;;;22.00;99.90;;;;;;4930677;29;19942;-79
2021/03/26 03:21:11;;;;;;;;;;;21.90;99.90;;;;;;4930439;29;20332;-80
2021/03/26 03:23:37;;;;;;;;;;;22.00;99.90;;;;;;4856733;29;20367;-77
2021/03/26 03:26:09;;;;;;;;;;;22.00;99.90;;;;;;4939183;29;19921;-81
2021/03/26 03:28:58;;;;;;;;;;;21.90;99.90;;;;;;4947833;29;20276;-81
2021/03/26 03:31:28;;;;;;;;;;;21.80;99.90;;;;;;4946330;29;19922;-78
2021/03/26 03:34:01;;;;;;;;;;;21.80;99.90;;;;;;4937961;29;19977;-81
2021/03/26 03:36:36;;;;;;;;;;;21.70;99.90;;;;;;4939577;29;19918;-81
2021/03/26 03:39:13;;;;;;;;;;;21.70;99.90;;;;;;4951088;29;19965;-81
2021/03/26 03:41:40;;;;;;;;;;;21.70;99.90;;;;;;4944556;29;19958;-82
2021/03/26 03:44:14;;;;;;;;;;;21.70;99.90;;;;;;4938344;29;19911;-83
2021/03/26 03:46:48;;;;;;;;;;;21.70;99.90;;;;;;4938405;29;19965;-81
2021/03/26 03:49:21;;;;;;;;;;;21.80;99.90;;;;;;4924241;29;20010;-82
2021/03/26 03:52:06;;;;;;;;;;;21.80;99.90;;;;;;4936611;29;19919;-81
2021/03/26 03:54:39;;;;;;;;;;;21.80;99.90;;;;;;4952604;29;19914;-81
2021/03/26 03:57:14;;;;;;;;;;;21.90;99.90;;;;;;4953503;29;20265;-83
2021/03/26 04:00:01;;;;;;;;;;;21.90;99.90;;;;;;4934656;29;19919;-82
2021/03/26 04:02:31;;;;;;;;;;;21.80;99.90;;;;;;4937953;29;19919;-83
2021/03/26 04:05:07;;;;;;;;;;;21.70;99.90;;;;;;4937658;29;19915;-83
2021/03/26 04:07:38;;;;;;;;;;;21.60;99.90;;;;;;4956060;29;20693;-83
2021/03/26 04:10:07;;;;;;;;;;;21.70;99.90;;;;;;4954911;29;20396;-81
2021/03/26 04:12:39;;;;;;;;;;;21.60;99.90;;;;;;4955696;29;19914;-81
2021/03/26 04:15:20;;;;;;;;;;;21.70;99.90;;;;;;4935827;29;19914;-80
2021/03/26 04:18:06;;;;;;;;;;;21.60;99.90;;;;;;4938102;29;19958;-82
2021/03/26 04:20:52;;;;;;;;;;;21.50;99.90;;;;;;4955467;29;19937;-82
2021/03/26 04:23:24;;;;;;;;;;;21.60;99.90;;;;;;4925708;29;20009;-82
2021/03/26 04:26:17;;;;;;;;;;;21.60;99.90;;;;;;4939330;29;19923;-80
2021/03/26 04:28:46;;;;;;;;;;;21.60;99.90;;;;;;4920276;29;19975;-79
2021/03/26 04:31:18;;;;;;;;;;;21.70;99.90;;;;;;4958313;29;19914;-78
2021/03/26 04:33:45;;;;;;;;;;;21.60;99.90;;;;;;4953419;29;19966;-79
2021/03/26 04:36:14;;;;;;;;;;;21.50;99.90;;;;;;4954914;28;19910;-80
2021/03/26 04:38:50;;;;;;;;;;;21.40;99.90;;;;;;4956010;28;20258;-80
2021/03/26 04:41:36;;;;;;;;;;;21.30;99.90;;;;;;4935081;29;19914;-82
2021/03/26 04:44:13;;;;;;;;;;;21.50;99.90;;;;;;4939619;29;19922;-79
2021/03/26 04:46:45;;;;;;;;;;;21.60;99.90;;;;;;4938414;29;19910;-83
2021/03/26 04:49:16;;;;;;;;;;;21.50;99.90;;;;;;4946462;29;19970;-83
2021/03/26 04:51:49;;;;;;;;;;;21.40;99.90;;;;;;4935124;29;20005;-80
2021/03/26 04:54:18;;;;;;;;;;;21.30;99.90;;;;;;4937285;29;20340;-81
2021/03/26 04:56:51;;;;;;;;;;;21.20;99.90;;;;;;4936189;29;19939;-80
2021/03/26 04:59:21;;;;;;;;;;;21.10;99.90;;;;;;4938239;29;19934;-79
2021/03/26 05:01:52;;;;;;;;;;;21.10;99.90;;;;;;4955644;28;20005;-79
2021/03/26 05:04:23;;;;;;;;;;;21.10;99.90;;;;;;4955654;29;20362;-82
2021/03/26 05:06:54;;;;;;;;;;;21.10;99.90;;;;;;4954808;29;19958;-81
2021/03/26 05:09:25;;;;;;;;;;;21.10;99.90;;;;;;4949543;29;19925;-81
2021/03/26 05:12:02;;;;;;;;;;;21.00;99.90;;;;;;4955304;29;19918;-79
2021/03/26 05:14:37;;;;;;;;;;;21.10;99.90;;;;;;4955291;29;19965;-78
2021/03/26 05:17:04;;;;;;;;;;;21.10;99.90;;;;;;4953326;29;19927;-81
2021/03/26 05:19:49;;;;;;;;;;;21.00;99.90;;;;;;4954030;29;19910;-80
2021/03/26 05:22:30;;;;;;;;;;;21.00;99.90;;;;;;4955457;29;19922;-81
2021/03/26 05:25:02;;;;;;;;;;;21.00;99.90;;;;;;4955060;29;19967;-80
2021/03/26 05:27:29;;;;;;;;;;;21.10;99.90;;;;;;4953775;29;19922;-80
2021/03/26 05:29:55;;;;;;;;;;;21.20;99.90;;;;;;4955316;28;20037;-81
2021/03/26 05:32:37;;;;;;;;;;;21.20;99.90;;;;;;4955167;29;19914;-80
2021/03/26 05:35:20;;;;;;;;;;;21.20;99.90;;;;;;4954984;29;19922;-80
2021/03/26 05:38:01;;;;;;;;;;;21.20;99.90;;;;;;4954178;29;19918;-81
2021/03/26 05:40:37;;;;;;;;;;;21.20;99.90;;;;;;4935285;29;20346;-79
2021/03/26 05:43:21;;;;;;;;;;;21.30;99.90;;;;;;4955815;29;19918;-79
2021/03/26 05:46:08;;;;;;;;;;;21.30;99.90;;;;;;4967331;29;19909;-81
2021/03/26 05:48:51;;;;;;;;;;;21.30;99.90;;;;;;4960573;28;19918;-81
2021/03/26 05:51:18;;;;;;;;;;;21.30;99.90;;;;;;4938907;29;19919;-81
2021/03/26 05:53:55;;;;;;;;;;;21.30;99.90;;;;;;4952287;28;19919;-81
2021/03/26 05:56:22;;;;;;;;;;;21.30;99.90;;;;;;4932783;29;20416;-82
2021/03/26 05:58:49;;;;;;;;;;;21.20;99.90;;;;;;4937022;28;19915;-80
2021/03/26 06:01:46;;;;;;;;;;;21.30;99.90;;;;;;4931954;29;20274;-81
2021/03/26 06:04:30;;;;;;;;;;;21.30;99.90;;;;;;4889471;29;19915;-82
2021/03/26 06:07:07;;;;;;;;;;;21.20;99.90;;;;;;4953189;29;19915;-80
2021/03/26 06:09:39;;;;;;;;;;;21.20;99.90;;;;;;4949846;29;19927;-80
2021/03/26 06:12:14;;;;;;;;;;;21.10;99.90;;;;;;4936561;29;20014;-80
2021/03/26 06:14:41;;;;;;;;;;;21.10;99.90;;;;;;4939119;29;20276;-79
2021/03/26 06:17:25;;;;;;;;;;;21.00;99.90;;;;;;4948097;29;20005;-79
2021/03/26 06:19:52;;;;;;;;;;;21.00;99.90;;;;;;4953882;29;19914;-81
2021/03/26 06:22:39;;;;;;;;;;;21.00;99.90;;;;;;4955178;29;19911;-81
2021/03/26 06:25:16;;;;;;;;;;;21.00;99.90;;;;;;4954790;29;20005;-81
2021/03/26 06:28:02;;;;;;;;;;;21.00;99.90;;;;;;4954366;29;19914;-80
2021/03/26 06:30:28;;;;;;;;;;;21.00;99.90;;;;;;4953986;29;19919;-80
2021/03/26 06:33:05;;;;;;;;;;;20.90;99.90;;;;;;4931800;29;19915;-80
2021/03/26 06:35:49;;;;;;;;;;;20.90;99.90;;;;;;4951482;29;20006;-79
2021/03/26 06:38:34;;;;;;;;;;;20.80;99.90;;;;;;4932537;29;19915;-81
2021/03/26 06:41:12;;;;;;;;;;;20.80;99.90;;;;;;4940758;29;19915;-81
2021/03/26 06:43:45;;;;;;;;;;;20.90;99.90;;;;;;4952488;29;19918;-80
2021/03/26 06:46:30;;;;;;;;;;;20.90;99.90;;;;;;4952852;29;21267;-78
2021/03/26 06:49:09;;;;;;;;;;;20.80;99.90;;;;;;4948643;29;19918;-80
2021/03/26 06:51:56;;;;;;;;;;;20.80;99.90;;;;;;4951613;29;19918;-79
2021/03/26 06:54:35;;;;;;;;;;;20.80;99.90;;;;;;4946513;29;19941;-80
2021/03/26 06:57:17;;;;;;;;;;;20.70;99.90;;;;;;4952163;29;19915;-79
2021/03/26 06:59:43;;;;;;;;;;;20.70;99.90;;;;;;4955005;28;19914;-80
2021/03/26 07:02:28;;;;;;;;;;;20.70;99.90;;;;;;4937700;29;19969;-80
2021/03/26 07:05:24;;;;;;;;;;;20.70;99.90;;;;;;4955318;29;20333;-80
2021/03/26 07:07:54;;;;;;;;;;;20.70;99.90;;;;;;4919771;29;19922;-79
2021/03/26 07:10:36;;;;;;;;;;;20.70;99.90;;;;;;4947178;29;19950;-79
2021/03/26 07:13:15;;;;;;;;;;;20.70;99.90;;;;;;4955697;29;20366;-80
2021/03/26 07:15:45;;;;;;;;;;;20.60;99.90;;;;;;4956164;29;20313;-81
2021/03/26 07:18:21;;;;;;;;;;;20.60;99.90;;;;;;4953676;29;19938;-81
2021/03/26 07:21:18;;;;;;;;;;;20.60;99.90;;;;;;4937124;29;20306;-81
2021/03/26 07:24:03;;;;;;;;;;;20.50;99.90;;;;;;4909228;29;19923;-79
2021/03/26 07:26:49;;;;;;;;;;;20.50;99.90;;;;;;4952643;29;19925;-79
2021/03/26 07:29:30;;;;;;;;;;;20.50;99.90;;;;;;4906565;29;19926;-79
2021/03/26 07:32:15;;;;;;;;;;;20.50;99.90;;;;;;4955624;29;20030;-79
2021/03/26 07:34:51;;;;;;;;;;;20.50;99.90;;;;;;4955835;29;20358;-79
2021/03/26 07:37:23;;;;;;;;;;;20.40;99.90;;;;;;4955111;29;20020;-79
2021/03/26 07:40:01;;;;;;;;;;;20.50;99.90;;;;;;4954668;29;19926;-79
2021/03/26 07:42:37;;;;;;;;;;;20.40;99.90;;;;;;4927551;29;19930;-79
2021/03/26 07:45:26;;;;;;;;;;;20.40;99.90;;;;;;4937512;29;19921;-79
2021/03/26 07:48:16;;;;;;;;;;;20.40;99.90;;;;;;4926270;29;19982;-79
2021/03/26 07:50:46;;;;;;;;;;;20.30;99.90;;;;;;4909442;29;19929;-80
2021/03/26 07:53:21;;;;;;;;;;;20.30;99.90;;;;;;4938173;29;19911;-78
2021/03/26 07:56:14;;;;;;;;;;;20.20;99.90;;;;;;4955126;29;19925;-80
2021/03/26 07:58:44;;;;;;;;;;;20.20;99.90;;;;;;4931517;29;20389;-79
2021/03/26 08:01:10;;;;;;;;;;;20.20;99.90;;;;;;4955270;29;20463;-79
2021/03/26 08:03:55;;;;;;;;;;;20.10;99.90;;;;;;4955427;29;19945;-81
2021/03/26 08:06:40;;;;;;;;;;;20.10;99.90;;;;;;4958777;29;19926;-80
2021/03/26 08:09:28;;;;;;;;;;;20.10;99.90;;;;;;4964256;29;19974;-79
2021/03/26 08:12:04;;;;;;;;;;;20.00;99.90;;;;;;4966239;29;19915;-80
2021/03/26 08:14:30;;;;;;;;;;;20.00;99.90;;;;;;4958400;29;19911;-80
2021/03/26 08:17:20;;;;;;;;;;;20.00;99.90;;;;;;4940019;29;19926;-79
2021/03/26 08:20:06;;;;;;;;;;;20.00;99.90;;;;;;4945092;29;19925;-80
2021/03/26 08:22:52;;;;;;;;;;;20.00;99.90;;;;;;4957368;29;19917;-80
2021/03/26 08:25:30;;;;;;;;;;;20.00;99.90;;;;;;4957240;29;19911;-81
2021/03/26 08:28:11;;;;;;;;;;;19.90;99.90;;;;;;4939895;29;19910;-80
2021/03/26 08:30:47;;;;;;;;;;;19.90;99.90;;;;;;4957346;29;19923;-81
2021/03/26 08:33:27;;;;;;;;;;;19.90;99.90;;;;;;4957012;29;19964;-80
2021/03/26 08:36:00;;;;;;;;;;;19.90;99.90;;;;;;4956807;29;19914;-79
2021/03/26 08:38:45;;;;;;;;;;;19.90;99.90;;;;;;4957215;29;19926;-80
2021/03/26 08:41:18;;;;;;;;;;;19.80;99.90;;;;;;4939897;29;19937;-81
2021/03/26 08:43:50;;;;;;;;;;;19.80;99.90;;;;;;4957043;29;19934;-81
2021/03/26 08:46:16;;;;;;;;;;;19.80;99.90;;;;;;4956503;29;19917;-81
2021/03/26 08:48:43;;;;;;;;;;;19.90;99.90;;;;;;4956930;29;19922;-80
2021/03/26 08:51:28;;;;;;;;;;;19.90;99.90;;;;;;4957063;29;19911;-81
2021/03/26 08:53:54;;;;;;;;;;;19.90;99.90;;;;;;4939474;29;19918;-81
2021/03/26 08:56:24;;;;;;;;;;;19.90;99.90;;;;;;4939599;29;19911;-81
2021/03/26 08:59:07;;;;;;;;;;;19.90;99.90;;;;;;4956989;29;19910;-80
2021/03/26 09:01:40;;;;;;;;;;;19.90;99.90;;;;;;4956635;29;19915;-81
2021/03/26 09:04:06;;;;;;;;;;;19.90;99.90;;;;;;4956770;29;20254;-80
2021/03/26 09:06:40;;;;;;;;;;;19.90;99.90;;;;;;4956553;29;19911;-80
2021/03/26 09:09:25;;;;;;;;;;;19.90;99.90;;;;;;4956269;29;19922;-80
2021/03/26 09:11:55;;;;;;;;;;;19.90;99.90;;;;;;4939415;29;19911;-79
2021/03/26 09:14:38;;;;;;;;;;;19.90;99.90;;;;;;4956618;29;19911;-80
2021/03/26 09:17:13;;;;;;;;;;;19.90;99.90;;;;;;4956293;29;19926;-80
2021/03/26 09:19:45;;;;;;;;;;;20.00;99.90;;;;;;4956343;29;19922;-81
2021/03/26 09:31:24;;;;;;;;;;;20.00;99.90;;;;;;4956229;29;20281;-81
2021/03/26 09:34:00;;;;;;;;;;;20.00;99.90;;;;;;4956312;29;19911;-81
2021/03/26 09:36:35;;;;;;;;;;;19.90;99.90;;;;;;4956232;29;19935;-80
2021/03/26 09:39:05;;;;;;;;;;;19.90;99.90;;;;;;4938914;29;19914;-81
2021/03/26 09:41:53;;;;;;;;;;;19.90;99.90;;;;;;4938219;29;20361;-81
2021/03/26 09:44:54;;;;;;;;;;;19.80;99.90;;;;;;4938874;29;19910;-79
2021/03/26 09:47:37;;;;;;;;;;;19.80;99.90;;;;;;4859541;29;19919;-81
2021/03/26 09:50:22;;;;;;;;;;;19.80;99.90;;;;;;4947519;29;19968;-79
2021/03/26 09:52:51;;;;;;;;;;;19.80;99.90;;;;;;4956598;29;19925;-79
2021/03/26 09:55:20;;;;;;;;;;;19.80;99.90;;;;;;4956401;29;19917;-79
2021/03/26 09:57:51;;;;;;;;;;;19.80;99.90;;;;;;4942254;29;19932;-79
2021/03/26 10:00:24;;;;;;;;;;;19.80;99.90;;;;;;4955108;29;19911;-79
2021/03/26 10:03:00;;;;;;;;;;;19.70;99.90;;;;;;4963614;29;20015;-78
2021/03/26 10:05:39;;;;;;;;;;;19.80;99.90;;;;;;4955510;29;19946;-79
2021/03/26 10:08:34;;;;;;;;;;;19.80;99.90;;;;;;4955578;29;19911;-79
2021/03/26 10:11:05;;;;;;;;;;;19.80;99.90;;;;;;4955148;29;19922;-79
2021/03/26 10:13:35;;;;;;;;;;;19.80;99.90;;;;;;4954900;29;19914;-79
2021/03/26 10:16:04;;;;;;;;;;;19.80;99.90;;;;;;4955638;29;19911;-80
2021/03/26 10:18:37;;;;;;;;;;;19.90;99.90;;;;;;4938248;29;19927;-79
2021/03/26 10:21:03;;;;;;;;;;;19.90;99.90;;;;;;4938136;29;20269;-80
2021/03/26 10:23:35;;;;;;;;;;;19.90;99.90;;;;;;4934899;29;20010;-78
2021/03/26 10:26:07;;;;;;;;;;;19.90;99.90;;;;;;4955116;29;20004;-79
2021/03/26 10:28:34;;;;;;;;;;;20.00;99.90;;;;;;4955179;29;20025;-81
2021/03/26 10:31:07;;;;;;;;;;;20.00;99.90;;;;;;4954685;29;19911;-79
2021/03/26 10:33:46;;;;;;;;;;;20.00;99.90;;;;;;4954275;28;20278;-81
2021/03/26 10:36:31;;;;;;;;;;;20.00;99.90;;;;;;4955391;29;20277;-80
2021/03/26 10:39:33;;;;;;;;;;;19.90;99.90;;;;;;4937766;29;19934;-79
2021/03/26 10:42:19;;;;;;;;;;;19.90;99.90;;;;;;4859047;29;19918;-80
2021/03/26 10:45:01;;;;;;;;;;;20.00;99.90;;;;;;4948344;29;19918;-80
2021/03/26 10:47:41;;;;;;;;;;;19.90;99.90;;;;;;4954918;29;19911;-80
2021/03/26 10:50:13;;;;;;;;;;;19.90;99.90;;;;;;4954554;29;19919;-81
2021/03/26 10:52:54;;;;;;;;;;;19.90;99.90;;;;;;4949023;29;19911;-82
2021/03/26 10:55:26;;;;;;;;;;;19.90;99.90;;;;;;4952775;29;19973;-81
2021/03/26 10:57:57;;;;;;;;;;;19.80;99.90;;;;;;4917624;29;20262;-81
2021/03/26 11:00:25;;;;;;;;;;;19.80;99.90;;;;;;4949882;29;19923;-81
2021/03/26 11:02:52;;;;;;;;;;;19.70;99.90;;;;;;4954176;29;20005;-81
2021/03/26 11:05:26;;;;;;;;;;;19.70;99.90;;;;;;4952917;29;19911;-81
2021/03/26 11:08:12;;;;;;;;;;;19.70;99.90;;;;;;4952490;29;20389;-81
2021/03/26 11:10:54;;;;;;;;;;;19.60;99.90;;;;;;4937008;29;20392;-80
2021/03/26 11:13:39;;;;;;;;;;;19.60;99.90;;;;;;4933092;29;20283;-79
2021/03/26 11:16:06;;;;;;;;;;;19.60;99.90;;;;;;4950787;29;19910;-79
2021/03/26 11:18:51;;;;;;;;;;;19.60;99.90;;;;;;4937939;29;19923;-83
2021/03/26 11:21:19;;;;;;;;;;;19.60;99.90;;;;;;4944561;29;19926;-81
2021/03/26 11:23:56;;;;;;;;;;;19.60;99.90;;;;;;4951535;29;19914;-81
2021/03/26 11:26:30;;;;;;;;;;;19.60;99.90;;;;;;4951841;29;20016;-78
2021/03/26 11:28:59;;;;;;;;;;;19.60;99.90;;;;;;4951733;29;19938;-78
2021/03/26 11:31:32;;;;;;;;;;;19.60;99.90;;;;;;4951288;29;20017;-77
2021/03/26 11:33:58;;;;;;;;;;;19.60;99.90;;;;;;4951590;29;19922;-80
2021/03/26 11:36:41;;;;;;;;;;;19.60;99.90;;;;;;4951522;29;19915;-80
2021/03/26 11:39:08;;;;;;;;;;;19.60;99.90;;;;;;4951468;29;19924;-80
2021/03/26 11:41:37;;;;;;;;;;;19.60;99.90;;;;;;4931104;29;20708;-83
2021/03/26 11:44:05;;;;;;;;;;;19.50;99.90;;;;;;4935089;29;20304;-84
2021/03/26 11:46:37;;;;;;;;;;;19.60;99.90;;;;;;4937465;29;19938;-84
2021/03/26 11:49:14;;;;;;;;;;;19.60;99.90;;;;;;4962137;29;19950;-78
2021/03/26 11:51:45;;;;;;;;;;;19.60;99.90;;;;;;4951529;29;20002;-78
2021/03/26 11:54:28;;;;;;;;;;;19.60;99.90;;;;;;4970708;29;19914;-78
2021/03/26 11:57:05;;;;;;;;;;;19.60;99.90;;;;;;4956283;29;19918;-81
2021/03/26 11:59:48;;;;;;;;;;;19.60;99.90;;;;;;4954729;29;19933;-82
2021/03/26 12:02:24;;;;;;;;;;;19.60;99.90;;;;;;4955045;29;19926;-82
2021/03/26 12:04:57;;;;;;;;;;;19.50;99.90;;;;;;4955751;28;19918;-82
2021/03/26 12:07:37;;;;;;;;;;;19.40;99.90;;;;;;4952371;29;19922;-78
2021/03/26 12:10:23;;;;;;;;;;;19.40;99.90;;;;;;4965696;29;19922;-80
2021/03/26 12:12:53;;;;;;;;;;;19.40;99.90;;;;;;4955522;29;19969;-85
2021/03/26 12:15:20;;;;;;;;;;;19.40;99.90;;;;;;4934624;29;19945;-82
2021/03/26 12:18:10;;;;;;;;;;;19.30;99.90;;;;;;4955167;29;19932;-85
2021/03/26 12:20:41;;;;;;;;;;;19.30;99.90;;;;;;4936126;29;19985;-84
2021/03/26 12:23:21;;;;;;;;;;;19.20;99.90;;;;;;4950341;29;19915;-80
2021/03/26 12:26:11;;;;;;;;;;;19.20;99.90;;;;;;4952636;29;19915;-82
2021/03/26 12:28:49;;;;;;;;;;;19.20;99.90;;;;;;4937983;29;19926;-79
2021/03/26 12:31:28;;;;;;;;;;;19.20;99.90;;;;;;4931879;29;19922;-80
2021/03/26 12:34:17;;;;;;;;;;;19.20;99.90;;;;;;4934661;29;20423;-80
2021/03/26 12:36:53;;;;;;;;;;;19.20;99.90;;;;;;4951177;29;20054;-80
2021/03/26 12:39:37;;;;;;;;;;;19.20;99.90;;;;;;4951981;29;19922;-79
2021/03/26 12:42:14;;;;;;;;;;;19.30;99.90;;;;;;4933971;29;20266;-82
2021/03/26 12:45:13;;;;;;;;;;;19.30;99.90;;;;;;4935220;29;19968;-80
2021/03/26 12:47:47;;;;;;;;;;;19.30;99.90;;;;;;4919780;29;19969;-80
2021/03/26 12:50:34;;;;;;;;;;;19.30;99.90;;;;;;4951441;29;19919;-81
2021/03/26 12:53:11;;;;;;;;;;;19.30;99.90;;;;;;4952216;29;19910;-80
2021/03/26 12:55:58;;;;;;;;;;;19.30;99.90;;;;;;4952308;29;19945;-79
2021/03/26 12:58:43;;;;;;;;;;;19.20;99.90;;;;;;4937493;29;20003;-80
2021/03/26 13:01:17;;;;;;;;;;;19.20;99.90;;;;;;4953202;29;19921;-83
2021/03/26 13:04:07;;;;;;;;;;;19.20;99.90;;;;;;4951405;29;19918;-80
2021/03/26 13:06:44;;;;;;;;;;;19.20;99.90;;;;;;4936106;29;19965;-80
2021/03/26 13:09:11;;;;;;;;;;;19.20;99.90;;;;;;4950167;29;19919;-81
2021/03/26 13:11:40;;;;;;;;;;;19.20;99.90;;;;;;4953206;29;19966;-80
2021/03/26 13:14:13;;;;;;;;;;;19.30;99.90;;;;;;4952892;29;19994;-82
2021/03/26 13:16:40;;;;;;;;;;;19.30;99.90;;;;;;4952118;29;20009;-79
2021/03/26 13:19:14;;;;;;;;;;;19.30;99.90;;;;;;4949218;29;19923;-81
2021/03/26 13:21:51;;;;;;;;;;;19.30;99.90;;;;;;4951875;29;19911;-80
2021/03/26 13:24:32;;;;;;;;;;;19.30;99.90;;;;;;4953638;29;19941;-79
2021/03/26 13:27:18;;;;;;;;;;;19.30;99.90;;;;;;4951143;29;19942;-81
2021/03/26 13:30:03;;;;;;;;;;;19.30;99.90;;;;;;4951997;29;20377;-80
2021/03/26 13:32:40;;;;;;;;;;;19.30;99.90;;;;;;4953081;29;19921;-80
2021/03/26 13:35:27;;;;;;;;;;;19.30;99.90;;;;;;4933164;29;19915;-79
2021/03/26 13:38:00;;;;;;;;;;;19.30;99.90;;;;;;4953620;29;19922;-80
2021/03/26 13:40:28;;;;;;;;;;;19.30;99.90;;;;;;4935636;29;20289;-83
2021/03/26 13:43:10;;;;;;;;;;;19.30;99.90;;;;;;4957782;29;19921;-80
2021/03/26 13:45:44;;;;;;;;;;;19.30;99.90;;;;;;4961876;29;19910;-82
2021/03/26 13:48:14;;;;;;;;;;;19.30;99.90;;;;;;4965633;29;19915;-81
2021/03/26 13:50:48;;;;;;;;;;;19.30;99.90;;;;;;4955666;29;20386;-81
2021/03/26 13:53:33;;;;;;;;;;;19.30;99.90;;;;;;4947216;29;19918;-80
2021/03/26 13:56:11;;;;;;;;;;;19.30;99.90;;;;;;4955156;29;20404;-83
2021/03/26 13:58:41;;;;;;;;;;;19.30;99.90;;;;;;4955635;29;20372;-80
2021/03/26 14:01:20;;;;;;;;;;;19.20;99.90;;;;;;4938447;29;19911;-79
2021/03/26 14:03:50;;;;;;;;;;;19.20;99.90;;;;;;4934870;29;19915;-82
2021/03/26 14:06:35;;;;;;;;;;;19.20;99.90;;;;;;4939597;29;20357;-80
2021/03/26 14:09:05;;;;;;;;;;;19.20;99.90;;;;;;4955775;28;19925;-80
2021/03/26 14:11:52;;;;;;;;;;;19.20;99.90;;;;;;4955762;29;20436;-80
2021/03/26 14:14:28;;;;;;;;;;;19.10;99.90;;;;;;4926063;29;19918;-81
2021/03/26 14:17:06;;;;;;;;;;;19.20;99.90;;;;;;4955192;29;19986;-79
2021/03/26 14:19:36;;;;;;;;;;;19.10;99.90;;;;;;4937843;29;19989;-80
2021/03/26 14:22:15;;;;;;;;;;;19.20;99.90;;;;;;4955727;29;19911;-79
2021/03/26 14:25:00;;;;;;;;;;;19.20;99.90;;;;;;4944972;29;19914;-82
2021/03/26 14:27:36;;;;;;;;;;;19.20;99.90;;;;;;4955435;29;20049;-80
2021/03/26 14:30:02;;;;;;;;;;;19.20;99.90;;;;;;4955625;29;19973;-80
2021/03/26 14:32:38;;;;;;;;;;;19.10;99.90;;;;;;4955333;29;19910;-80
2021/03/26 14:35:10;;;;;;;;;;;19.10;99.90;;;;;;4955414;29;19929;-80
2021/03/26 14:37:39;;;;;;;;;;;19.10;99.90;;;;;;4918565;29;20306;-81
2021/03/26 14:40:12;;;;;;;;;;;19.10;99.90;;;;;;4934432;29;19911;-80
2021/03/26 14:42:43;;;;;;;;;;;19.20;99.90;;;;;;4938720;29;19922;-82
2021/03/26 14:45:30;;;;;;;;;;;19.10;99.90;;;;;;4937881;29;19915;-80
2021/03/26 14:48:15;;;;;;;;;;;19.10;99.90;;;;;;4914001;29;19915;-80
2021/03/26 14:50:45;;;;;;;;;;;19.00;99.90;;;;;;4936172;29;19926;-80
2021/03/26 14:53:16;;;;;;;;;;;19.00;99.90;;;;;;4947820;29;19953;-80
2021/03/26 14:55:46;;;;;;;;;;;19.00;99.90;;;;;;4955600;29;20365;-80
2021/03/26 14:58:36;;;;;;;;;;;19.00;99.90;;;;;;4955337;29;19961;-83
2021/03/26 15:01:21;;;;;;;;;;;19.00;99.90;;;;;;4938090;29;20384;-80
2021/03/26 15:04:04;;;;;;;;;;;19.10;99.90;;;;;;4934578;29;20286;-80
2021/03/26 15:06:31;;;;;;;;;;;19.10;99.90;;;;;;4940402;29;20042;-82
2021/03/26 15:09:00;;;;;;;;;;;19.10;99.90;;;;;;4937811;29;19915;-83
2021/03/26 15:11:30;;;;;;;;;;;19.10;99.90;;;;;;4954758;29;19993;-83
2021/03/26 15:13:58;;;;;;;;;;;19.10;99.90;;;;;;4954719;29;19921;-83